Time;durP1;ratioP1;P1;durP2;ratioP2;P2;SDS_P1;SDS_P2;PMS_P1;PMS_P2;Temp;Humidity;BMP_temperature;BMP_pressure;BME280_temperature;BME280_humidity;BME280_pressure;Samples;Min_cycle;Max_cycle;Signal;HPM_P1;HPM_P2
2022/08/01 00:00:21;;;;;;;11.00;2.80;;;;;;;;;;5298469;27;20654;-88
2022/08/01 00:02:47;;;;;;;2.75;2.55;;;;;;;;;;5298239;27;20291;-93
2022/08/01 00:05:12;;;;;;;3.50;2.47;;;;;;;;;;5279846;27;20302;-90
2022/08/01 00:07:39;;;;;;;4.70;2.85;;;;;;;;;;5298970;27;20257;-93
2022/08/01 00:10:07;;;;;;;7.40;2.90;;;;;;;;;;5298793;27;20191;-90
2022/08/01 00:12:33;;;;;;;3.85;2.95;;;;;;;;;;5278899;27;20211;-92
2022/08/01 00:14:59;;;;;;;5.35;2.58;;;;;;;;;;5279207;27;20176;-89
2022/08/01 00:17:24;;;;;;;5.22;2.92;;;;;;;;;;5298066;27;20204;-89
2022/08/01 00:19:51;;;;;;;4.25;2.92;;;;;;;;;;5298690;27;20620;-91
2022/08/01 00:22:17;;;;;;;3.00;2.60;;;;;;;;;;5299202;27;20623;-94
2022/08/01 00:24:42;;;;;;;5.85;2.72;;;;;;;;;;5299047;27;20352;-91
2022/08/01 00:27:08;;;;;;;9.07;2.65;;;;;;;;;;5298859;27;20203;-92
2022/08/01 00:29:33;;;;;;;3.20;2.42;;;;;;;;;;5298868;27;20180;-89
2022/08/01 00:32:00;;;;;;;2.87;2.47;;;;;;;;;;5298598;27;20831;-92
2022/08/01 00:34:25;;;;;;;4.82;2.80;;;;;;;;;;5298503;27;20607;-92
2022/08/01 00:36:51;;;;;;;5.95;3.20;;;;;;;;;;5299156;27;20264;-89
2022/08/01 00:39:17;;;;;;;4.82;2.65;;;;;;;;;;5298511;27;20260;-90
2022/08/01 00:41:43;;;;;;;3.85;3.40;;;;;;;;;;5299225;27;20640;-92
2022/08/01 00:44:08;;;;;;;4.12;3.72;;;;;;;;;;5299020;27;20195;-93
2022/08/01 00:46:34;;;;;;;6.15;3.70;;;;;;;;;;5298286;27;20210;-93
2022/08/01 00:49:01;;;;;;;3.78;3.00;;;;;;;;;;5278413;27;20273;-91
2022/08/01 00:51:28;;;;;;;3.35;3.05;;;;;;;;;;5298260;27;20281;-93
2022/08/01 00:53:54;;;;;;;3.53;3.15;;;;;;;;;;5298454;27;20179;-95
2022/08/01 00:56:21;;;;;;;10.40;3.72;;;;;;;;;;5279018;27;20401;-94
2022/08/01 00:58:47;;;;;;;3.40;2.80;;;;;;;;;;5298491;27;20207;-91
2022/08/01 01:01:13;;;;;;;4.37;3.60;;;;;;;;;;5298274;27;20592;-93
2022/08/01 01:03:38;;;;;;;8.93;3.33;;;;;;;;;;5278556;27;20196;-90
2022/08/01 01:06:22;;;;;;;4.72;3.28;;;;;;;;;;5298083;27;20175;-89
2022/08/01 01:09:26;;;;;;;7.03;3.78;;;;;;;;;;5279008;27;20279;-90
2022/08/01 01:11:54;;;;;;;7.00;3.03;;;;;;;;;;5298706;27;20203;-89
2022/08/01 01:14:46;;;;;;;8.02;3.28;;;;;;;;;;5298132;27;20179;-89
2022/08/01 01:17:15;;;;;;;6.25;3.10;;;;;;;;;;5288031;27;20230;-91
2022/08/01 01:19:47;;;;;;;4.87;3.47;;;;;;;;;;5298739;27;20187;-92
2022/08/01 01:22:24;;;;;;;4.95;3.22;;;;;;;;;;5298915;27;20196;-91
2022/08/01 01:25:27;;;;;;;4.20;3.12;;;;;;;;;;5298371;27;20179;-92
2022/08/01 01:28:52;;;;;;;4.03;3.05;;;;;;;;;;5298779;27;20203;-92
2022/08/01 01:31:21;;;;;;;4.37;2.97;;;;;;;;;;5266105;27;20311;-89
2022/08/01 01:33:49;;;;;;;6.20;3.50;;;;;;;;;;5299053;27;20224;-90
2022/08/01 01:36:17;;;;;;;10.00;3.00;;;;;;;;;;5298242;27;20277;-95
2022/08/01 01:38:45;;;;;;;5.32;3.08;;;;;;;;;;5298843;27;20199;-89
2022/08/01 01:41:13;;;;;;;4.22;3.42;;;;;;;;;;5298896;27;20257;-91
2022/08/01 01:43:41;;;;;;;4.68;2.83;;;;;;;;;;5298672;27;20176;-93
2022/08/01 01:46:08;;;;;;;5.60;3.40;;;;;;;;;;5298487;27;20233;-91
2022/08/01 01:48:34;;;;;;;3.47;2.87;;;;;;;;;;5278522;27;20302;-92
2022/08/01 01:51:01;;;;;;;8.38;3.28;;;;;;;;;;5297946;27;20200;-90
2022/08/01 01:53:28;;;;;;;7.37;3.10;;;;;;;;;;5278386;27;20201;-92
2022/08/01 01:55:57;;;;;;;6.95;3.25;;;;;;;;;;5298172;27;20827;-93
2022/08/01 01:58:27;;;;;;;3.37;3.08;;;;;;;;;;5298243;27;20202;-91
2022/08/01 02:00:56;;;;;;;4.40;3.25;;;;;;;;;;5279112;27;20229;-91
2022/08/01 02:03:22;;;;;;;5.37;3.05;;;;;;;;;;5297877;27;20211;-93
2022/08/01 02:05:51;;;;;;;3.65;2.75;;;;;;;;;;5278600;27;20308;-92
2022/08/01 02:08:17;;;;;;;4.15;3.75;;;;;;;;;;5298056;27;20326;-90
2022/08/01 02:11:17;;;;;;;3.87;3.20;;;;;;;;;;5298505;27;20212;-89
2022/08/01 02:13:36;;;;;;;3.45;2.95;;;;;;;;;;5298471;27;20501;-90
2022/08/01 02:16:03;;;;;;;5.57;2.83;;;;;;;;;;5298648;27;20200;-91
2022/08/01 02:18:29;;;;;;;5.10;3.42;;;;;;;;;;5298056;27;20187;-89
2022/08/01 02:20:57;;;;;;;5.82;2.28;;;;;;;;;;5298166;27;20216;-89
2022/08/01 02:23:27;;;;;;;5.95;3.10;;;;;;;;;;5298535;27;20835;-94
2022/08/01 02:25:55;;;;;;;4.50;2.80;;;;;;;;;;5297984;27;20510;-92
2022/08/01 02:28:30;;;;;;;4.12;3.28;;;;;;;;;;5298334;27;20200;-89
2022/08/01 02:31:01;;;;;;;3.42;2.97;;;;;;;;;;5298043;27;20460;-92
2022/08/01 02:34:06;;;;;;;7.87;3.00;;;;;;;;;;5297693;27;20263;-92
2022/08/01 02:36:36;;;;;;;5.37;3.10;;;;;;;;;;5297917;27;20204;-91
2022/08/01 02:39:07;;;;;;;3.85;2.87;;;;;;;;;;5297568;27;20245;-94
2022/08/01 02:41:38;;;;;;;2.90;2.65;;;;;;;;;;5298426;27;20208;-90
2022/08/01 02:44:06;;;;;;;5.97;2.90;;;;;;;;;;5278770;27;20203;-92
2022/08/01 02:46:39;;;;;;;3.42;2.80;;;;;;;;;;5298873;27;20236;-90
2022/08/01 02:49:08;;;;;;;4.47;2.87;;;;;;;;;;5298007;27;20188;-89
2022/08/01 02:51:36;;;;;;;5.65;2.83;;;;;;;;;;5298427;27;20782;-92
2022/08/01 02:54:04;;;;;;;8.20;3.05;;;;;;;;;;5297907;27;20180;-89
2022/08/01 02:56:34;;;;;;;5.05;2.53;;;;;;;;;;5297870;27;20841;-92
2022/08/01 02:59:12;;;;;;;7.05;3.65;;;;;;;;;;5298699;27;20637;-89
2022/08/01 03:01:38;;;;;;;3.40;2.87;;;;;;;;;;5298768;27;21033;-87
2022/08/01 03:04:06;;;;;;;5.93;3.10;;;;;;;;;;5299301;27;20191;-90
2022/08/01 03:06:33;;;;;;;6.97;3.37;;;;;;;;;;5301983;27;20755;-87
2022/08/01 03:09:01;;;;;;;8.23;3.00;;;;;;;;;;5300103;27;20206;-89
2022/08/01 03:11:29;;;;;;;3.97;2.92;;;;;;;;;;5279260;27;20184;-91
2022/08/01 03:13:56;;;;;;;8.30;3.67;;;;;;;;;;5297933;27;20218;-90
2022/08/01 03:16:26;;;;;;;13.50;3.50;;;;;;;;;;5298033;27;20229;-88
2022/08/01 03:18:53;;;;;;;3.53;2.87;;;;;;;;;;5299297;27;20188;-88
2022/08/01 03:21:21;;;;;;;4.30;3.05;;;;;;;;;;5296543;27;20330;-82
2022/08/01 03:23:48;;;;;;;9.60;3.47;;;;;;;;;;5296598;27;20177;-81
2022/08/01 03:26:14;;;;;;;3.65;3.15;;;;;;;;;;5296965;27;20275;-82
2022/08/01 03:28:44;;;;;;;3.55;3.03;;;;;;;;;;5296882;27;20196;-81
2022/08/01 03:31:10;;;;;;;4.57;2.70;;;;;;;;;;5298757;27;20205;-81
2022/08/01 03:33:36;;;;;;;6.28;3.62;;;;;;;;;;5299323;27;20241;-82
2022/08/01 03:36:03;;;;;;;3.30;2.50;;;;;;;;;;5279510;27;20224;-81
2022/08/01 03:38:30;;;;;;;4.82;3.00;;;;;;;;;;5301250;27;20188;-81
2022/08/01 03:41:05;;;;;;;4.60;2.97;;;;;;;;;;5299854;27;20303;-81
2022/08/01 03:43:36;;;;;;;5.93;2.83;;;;;;;;;;5298603;27;20164;-83
2022/08/01 03:46:07;;;;;;;6.72;2.60;;;;;;;;;;5297529;27;20196;-81
2022/08/01 03:48:39;;;;;;;3.15;2.62;;;;;;;;;;5297893;27;20224;-88
2022/08/01 03:51:06;;;;;;;5.35;3.53;;;;;;;;;;5279071;27;20271;-87
2022/08/01 03:53:33;;;;;;;3.47;3.17;;;;;;;;;;5299708;27;20241;-87
2022/08/01 03:56:01;;;;;;;4.07;3.20;;;;;;;;;;5298612;27;20204;-87
2022/08/01 03:58:29;;;;;;;3.10;2.80;;;;;;;;;;5297677;27;20179;-88
2022/08/01 04:00:55;;;;;;;3.87;2.67;;;;;;;;;;5299188;27;20205;-87
2022/08/01 04:03:21;;;;;;;4.93;3.00;;;;;;;;;;5278296;27;20629;-87
2022/08/01 04:05:46;;;;;;;5.25;3.45;;;;;;;;;;5298314;27;20290;-88
2022/08/01 04:08:12;;;;;;;4.78;2.70;;;;;;;;;;5298495;27;20187;-89
2022/08/01 04:10:39;;;;;;;4.28;2.87;;;;;;;;;;5298664;27;20309;-88
2022/08/01 04:13:04;;;;;;;4.45;3.37;;;;;;;;;;5298800;27;20223;-88
2022/08/01 04:15:30;;;;;;;3.42;2.97;;;;;;;;;;5298395;27;20204;-87
2022/08/01 04:17:56;;;;;;;3.87;3.08;;;;;;;;;;5278277;27;20239;-87
2022/08/01 04:20:21;;;;;;;7.47;2.90;;;;;;;;;;5298418;27;20556;-90
2022/08/01 04:22:47;;;;;;;6.15;3.75;;;;;;;;;;5298280;27;20251;-86
2022/08/01 04:25:19;;;;;;;6.97;3.95;;;;;;;;;;5297954;27;20659;-87
2022/08/01 04:27:48;;;;;;;6.47;3.62;;;;;;;;;;5298353;27;20229;-91
2022/08/01 04:30:14;;;;;;;5.85;3.15;;;;;;;;;;5298114;27;20594;-88
2022/08/01 04:32:44;;;;;;;5.85;3.70;;;;;;;;;;5297177;27;20183;-89
2022/08/01 04:35:16;;;;;;;12.27;3.70;;;;;;;;;;5297931;27;20200;-86
2022/08/01 04:37:44;;;;;;;4.37;3.12;;;;;;;;;;5278526;27;20200;-90
2022/08/01 04:40:11;;;;;;;2.83;2.35;;;;;;;;;;5297555;27;20270;-89
2022/08/01 04:42:36;;;;;;;6.47;3.62;;;;;;;;;;5297752;27;20653;-89
2022/08/01 04:45:02;;;;;;;5.62;3.42;;;;;;;;;;5277882;27;20327;-88
2022/08/01 04:47:29;;;;;;;5.57;2.72;;;;;;;;;;5297581;27;20578;-88
2022/08/01 04:49:56;;;;;;;3.95;2.72;;;;;;;;;;5297152;27;20279;-84
2022/08/01 04:52:22;;;;;;;9.38;2.47;;;;;;;;;;5297421;27;20180;-86
2022/08/01 04:54:47;;;;;;;13.10;3.42;;;;;;;;;;5297539;27;20318;-90
2022/08/01 04:57:14;;;;;;;17.45;3.53;;;;;;;;;;5297855;27;20190;-88
2022/08/01 04:59:43;;;;;;;3.83;3.40;;;;;;;;;;5278146;27;20267;-89
2022/08/01 05:02:10;;;;;;;7.35;2.83;;;;;;;;;;5296644;27;20216;-88
2022/08/01 05:04:36;;;;;;;12.00;2.92;;;;;;;;;;5297444;27;20215;-87
2022/08/01 05:07:02;;;;;;;6.22;2.50;;;;;;;;;;5278768;27;20180;-88
2022/08/01 05:09:28;;;;;;;2.97;2.45;;;;;;;;;;5296655;27;20230;-84
2022/08/01 05:11:54;;;;;;;3.95;2.45;;;;;;;;;;5296800;27;20206;-83
2022/08/01 05:14:19;;;;;;;8.02;2.85;;;;;;;;;;5296565;27;20211;-85
2022/08/01 05:16:45;;;;;;;5.32;2.80;;;;;;;;;;5296498;27;20237;-83
2022/08/01 05:19:11;;;;;;;7.18;3.75;;;;;;;;;;5296949;27;20228;-84
2022/08/01 05:21:37;;;;;;;9.52;3.03;;;;;;;;;;5276946;27;20224;-83
2022/08/01 05:24:04;;;;;;;25.25;5.87;;;;;;;;;;5276384;27;20662;-80
2022/08/01 05:26:29;;;;;;;5.85;3.55;;;;;;;;;;5295353;27;20242;-82
2022/08/01 05:28:56;;;;;;;6.40;3.60;;;;;;;;;;5295176;27;20487;-82
2022/08/01 05:31:22;;;;;;;19.77;8.10;;;;;;;;;;5294705;27;20353;-82
2022/08/01 05:33:47;;;;;;;9.80;5.30;;;;;;;;;;5274959;27;20275;-83
2022/08/01 05:36:13;;;;;;;13.23;5.70;;;;;;;;;;5295079;27;20289;-84
2022/08/01 05:38:38;;;;;;;5.62;3.10;;;;;;;;;;5275233;27;20224;-84
2022/08/01 05:41:04;;;;;;;4.70;3.15;;;;;;;;;;5295044;27;20215;-84
2022/08/01 05:43:31;;;;;;;8.00;4.10;;;;;;;;;;5296447;27;20275;-84
2022/08/01 05:45:58;;;;;;;10.02;2.92;;;;;;;;;;5295929;27;20204;-84
2022/08/01 05:48:23;;;;;;;7.80;3.15;;;;;;;;;;5296803;27;20180;-84
2022/08/01 05:50:49;;;;;;;6.03;2.62;;;;;;;;;;5295994;27;20642;-82
2022/08/01 05:53:15;;;;;;;9.85;4.00;;;;;;;;;;5295848;27;20203;-82
2022/08/01 05:55:40;;;;;;;4.90;2.85;;;;;;;;;;5296328;27;20212;-82
2022/08/01 05:58:06;;;;;;;5.93;2.80;;;;;;;;;;5277023;27;20215;-82
2022/08/01 06:00:31;;;;;;;7.25;2.55;;;;;;;;;;5296165;27;20201;-83
2022/08/01 06:02:57;;;;;;;10.20;3.42;;;;;;;;;;5295975;27;20275;-83
2022/08/01 06:05:22;;;;;;;5.12;2.58;;;;;;;;;;5296328;27;20233;-82
2022/08/01 06:07:48;;;;;;;8.07;2.85;;;;;;;;;;5295006;27;20188;-82
2022/08/01 06:10:13;;;;;;;11.57;3.25;;;;;;;;;;5295986;27;20242;-82
2022/08/01 06:12:39;;;;;;;4.65;3.10;;;;;;;;;;5296546;27;20548;-83
2022/08/01 06:15:05;;;;;;;6.72;3.03;;;;;;;;;;5294287;27;20525;-82
2022/08/01 06:17:31;;;;;;;3.33;2.53;;;;;;;;;;5296213;27;20568;-83
2022/08/01 06:19:56;;;;;;;4.03;2.95;;;;;;;;;;5296652;27;20265;-83
2022/08/01 06:22:22;;;;;;;2.50;2.08;;;;;;;;;;5296405;27;20195;-83
2022/08/01 06:24:47;;;;;;;11.27;3.12;;;;;;;;;;5277061;27;20631;-83
2022/08/01 06:27:13;;;;;;;2.90;2.42;;;;;;;;;;5300838;27;20258;-83
2022/08/01 06:29:39;;;;;;;3.08;2.40;;;;;;;;;;5300454;27;20628;-84
2022/08/01 06:32:06;;;;;;;7.00;2.30;;;;;;;;;;5306548;27;20250;-83
2022/08/01 06:34:31;;;;;;;4.32;2.30;;;;;;;;;;5302107;27;20204;-83
2022/08/01 06:36:58;;;;;;;10.93;2.70;;;;;;;;;;5299684;27;20580;-83
2022/08/01 06:39:25;;;;;;;2.97;2.65;;;;;;;;;;5300242;27;20425;-82
2022/08/01 06:41:50;;;;;;;5.55;2.87;;;;;;;;;;5303294;27;20191;-84
2022/08/01 06:44:16;;;;;;;4.07;2.60;;;;;;;;;;5299332;27;20195;-84
2022/08/01 06:46:42;;;;;;;9.98;3.72;;;;;;;;;;5296888;27;20192;-85
2022/08/01 06:49:07;;;;;;;3.67;2.85;;;;;;;;;;5298690;27;20259;-85
2022/08/01 06:51:32;;;;;;;4.50;3.10;;;;;;;;;;5299390;27;20176;-83
2022/08/01 06:53:58;;;;;;;9.15;3.03;;;;;;;;;;5299560;27;20192;-84
2022/08/01 06:56:23;;;;;;;4.05;2.17;;;;;;;;;;5298221;27;20205;-83
2022/08/01 06:58:50;;;;;;;6.80;3.47;;;;;;;;;;5298568;27;20181;-84
2022/08/01 07:01:16;;;;;;;7.82;3.37;;;;;;;;;;5297461;27;20547;-84
2022/08/01 07:03:41;;;;;;;9.75;3.12;;;;;;;;;;5299409;27;20172;-82
2022/08/01 07:06:07;;;;;;;12.30;3.85;;;;;;;;;;5299574;27;20779;-83
2022/08/01 07:08:32;;;;;;;6.68;3.45;;;;;;;;;;5297708;27;20200;-84
2022/08/01 07:10:59;;;;;;;6.95;2.85;;;;;;;;;;5297042;27;20219;-83
2022/08/01 07:13:30;;;;;;;9.23;3.60;;;;;;;;;;5297293;27;20183;-83
2022/08/01 07:15:56;;;;;;;4.60;3.37;;;;;;;;;;5297053;27;20525;-84
2022/08/01 07:18:22;;;;;;;13.43;3.55;;;;;;;;;;5298335;27;20614;-83
2022/08/01 07:20:48;;;;;;;8.70;2.97;;;;;;;;;;5297286;27;20664;-81
2022/08/01 07:23:13;;;;;;;5.62;3.08;;;;;;;;;;5297301;27;20258;-82
2022/08/01 07:25:39;;;;;;;4.50;2.45;;;;;;;;;;5297178;27;20204;-83
2022/08/01 07:28:04;;;;;;;3.20;2.20;;;;;;;;;;5297127;27;20176;-83
2022/08/01 07:30:30;;;;;;;3.85;2.62;;;;;;;;;;5296713;27;20203;-83
2022/08/01 07:32:57;;;;;;;6.12;2.47;;;;;;;;;;5297426;27;20195;-86
2022/08/01 07:35:22;;;;;;;4.18;2.35;;;;;;;;;;5296972;27;20204;-85
2022/08/01 07:37:48;;;;;;;4.25;2.37;;;;;;;;;;5297071;27;20233;-84
2022/08/01 07:40:14;;;;;;;2.47;2.05;;;;;;;;;;5296754;27;20215;-84
2022/08/01 07:42:43;;;;;;;3.33;2.22;;;;;;;;;;5296606;27;20242;-84
2022/08/01 07:45:09;;;;;;;3.75;2.58;;;;;;;;;;5296328;27;20289;-82
2022/08/01 07:47:35;;;;;;;3.75;2.35;;;;;;;;;;5296430;27;20309;-83
2022/08/01 07:50:01;;;;;;;2.87;2.00;;;;;;;;;;5296599;27;20248;-84
2022/08/01 07:52:27;;;;;;;8.45;2.37;;;;;;;;;;5296993;27;20189;-81
2022/08/01 07:54:53;;;;;;;3.25;2.03;;;;;;;;;;5296908;27;20255;-83
2022/08/01 07:57:19;;;;;;;3.45;2.00;;;;;;;;;;5279941;27;20238;-81
2022/08/01 07:59:45;;;;;;;3.80;2.22;;;;;;;;;;5297354;27;20374;-86
2022/08/01 08:02:12;;;;;;;3.87;2.87;;;;;;;;;;5276234;27;20207;-86
2022/08/01 08:04:37;;;;;;;8.05;2.40;;;;;;;;;;5276077;27;20332;-83
2022/08/01 08:07:04;;;;;;;4.53;1.95;;;;;;;;;;5295673;27;20189;-83
2022/08/01 08:09:30;;;;;;;2.33;1.75;;;;;;;;;;5295011;27;20534;-82
2022/08/01 08:11:56;;;;;;;2.87;1.77;;;;;;;;;;5295971;27;20263;-82
2022/08/01 08:14:22;;;;;;;2.97;2.03;;;;;;;;;;5295775;27;20204;-82
2022/08/01 08:16:48;;;;;;;7.28;3.25;;;;;;;;;;5298432;27;20608;-84
2022/08/01 08:19:14;;;;;;;3.33;2.20;;;;;;;;;;5299238;27;20214;-84
2022/08/01 08:21:40;;;;;;;5.68;2.58;;;;;;;;;;5297771;27;20765;-84
2022/08/01 08:24:19;;;;;;;2.35;2.05;;;;;;;;;;5297520;27;20273;-84
2022/08/01 08:26:47;;;;;;;2.40;1.92;;;;;;;;;;5280405;27;20573;-83
2022/08/01 08:29:12;;;;;;;3.12;1.95;;;;;;;;;;5297448;27;20206;-83
2022/08/01 08:31:38;;;;;;;6.45;2.37;;;;;;;;;;5298149;27;20192;-82
2022/08/01 08:34:04;;;;;;;3.35;1.70;;;;;;;;;;5298380;27;20214;-85
2022/08/01 08:36:29;;;;;;;2.70;1.98;;;;;;;;;;5297673;27;20181;-84
2022/08/01 08:38:55;;;;;;;3.95;2.12;;;;;;;;;;5297697;27;20209;-85
2022/08/01 08:41:22;;;;;;;3.35;2.35;;;;;;;;;;5277461;27;20637;-84
2022/08/01 08:43:48;;;;;;;2.72;2.15;;;;;;;;;;5297370;27;20263;-86
2022/08/01 08:46:14;;;;;;;2.55;1.73;;;;;;;;;;5297378;27;20204;-85
2022/08/01 08:48:40;;;;;;;3.65;1.90;;;;;;;;;;5277726;27;20219;-85
2022/08/01 08:51:08;;;;;;;2.37;1.75;;;;;;;;;;5277909;27;20219;-83
2022/08/01 08:53:35;;;;;;;3.05;2.05;;;;;;;;;;5297623;27;20185;-85
2022/08/01 08:56:03;;;;;;;3.90;2.00;;;;;;;;;;5259870;27;20231;-85
2022/08/01 08:58:33;;;;;;;3.80;2.08;;;;;;;;;;5298110;27;20183;-84
2022/08/01 09:00:59;;;;;;;3.17;1.90;;;;;;;;;;5297191;27;20204;-83
2022/08/01 09:03:25;;;;;;;3.92;1.92;;;;;;;;;;5296183;27;20214;-84
2022/08/01 09:05:50;;;;;;;7.68;2.28;;;;;;;;;;5297637;27;20223;-83
2022/08/01 09:08:16;;;;;;;3.72;1.83;;;;;;;;;;5298285;27;20867;-87
2022/08/01 09:10:42;;;;;;;3.95;1.73;;;;;;;;;;5298799;27;20212;-85
2022/08/01 09:13:11;;;;;;;2.40;1.98;;;;;;;;;;5298175;27;20263;-87
2022/08/01 09:15:39;;;;;;;3.47;1.62;;;;;;;;;;5297417;27;20216;-86
2022/08/01 09:18:07;;;;;;;2.97;1.85;;;;;;;;;;5279582;27;20208;-86
2022/08/01 09:20:35;;;;;;;4.35;2.05;;;;;;;;;;5299204;27;20272;-85
2022/08/01 09:23:00;;;;;;;6.53;1.80;;;;;;;;;;5300295;27;20191;-85
2022/08/01 09:26:44;;;;;;;1.87;1.70;;;;;;;;;;4490323;31;20384;-84
2022/08/01 09:30:10;;;;;;;5.62;1.65;;;;;;;;;;4445905;31;20399;-82
2022/08/01 09:35:57;;;;;;;2.17;1.60;;;;;;;;;;4443767;32;20735;-82
2022/08/01 09:38:26;;;;;;;3.00;1.50;;;;;;;;;;4443944;32;20236;-81
2022/08/01 09:41:00;;;;;;;2.45;1.30;;;;;;;;;;4443434;32;20656;-82
2022/08/01 09:43:28;;;;;;;4.47;1.92;;;;;;;;;;4443656;32;20292;-82
2022/08/01 09:45:55;;;;;;;3.25;1.75;;;;;;;;;;4443266;32;20229;-81
2022/08/01 09:48:22;;;;;;;1.98;1.73;;;;;;;;;;4443196;32;20213;-83
2022/08/01 09:50:51;;;;;;;4.47;1.67;;;;;;;;;;4427991;32;20231;-81
2022/08/01 09:53:17;;;;;;;1.67;1.55;;;;;;;;;;4428982;32;20225;-81
2022/08/01 09:55:44;;;;;;;3.15;1.83;;;;;;;;;;4428162;32;20201;-80
2022/08/01 09:58:11;;;;;;;5.82;1.87;;;;;;;;;;4427757;32;20271;-82
2022/08/01 10:00:38;;;;;;;1.98;1.58;;;;;;;;;;4427062;32;20349;-82
2022/08/01 10:03:23;;;;;;;4.57;2.03;;;;;;;;;;4427519;32;20236;-81
2022/08/01 10:05:51;;;;;;;2.25;1.60;;;;;;;;;;4426536;32;20650;-83
2022/08/01 10:08:17;;;;;;;4.30;2.00;;;;;;;;;;4428040;32;20683;-84
2022/08/01 10:11:08;;;;;;;2.03;1.65;;;;;;;;;;4414337;32;20770;-83
2022/08/01 10:13:33;;;;;;;2.33;1.55;;;;;;;;;;4422399;32;20692;-83
2022/08/01 10:16:00;;;;;;;2.70;1.80;;;;;;;;;;4427796;32;20209;-84
2022/08/01 10:18:28;;;;;;;4.55;2.30;;;;;;;;;;4428101;32;20368;-83
2022/08/01 10:20:54;;;;;;;3.17;1.70;;;;;;;;;;4428480;32;20208;-85
2022/08/01 10:23:21;;;;;;;1.83;1.48;;;;;;;;;;4427495;32;20881;-86
2022/08/01 10:25:48;;;;;;;6.75;1.90;;;;;;;;;;4428639;32;20303;-85
2022/08/01 10:28:17;;;;;;;1.75;1.60;;;;;;;;;;4426521;32;20265;-83
2022/08/01 10:30:43;;;;;;;4.47;1.70;;;;;;;;;;4427817;32;20284;-84
2022/08/01 10:33:10;;;;;;;3.35;1.60;;;;;;;;;;4425074;32;20221;-84
2022/08/01 10:35:38;;;;;;;2.12;1.90;;;;;;;;;;4412839;32;20280;-83
2022/08/01 10:38:04;;;;;;;5.95;2.62;;;;;;;;;;4412978;32;20293;-84
2022/08/01 10:40:31;;;;;;;2.35;1.67;;;;;;;;;;4405664;32;20251;-84
2022/08/01 10:42:57;;;;;;;3.37;1.85;;;;;;;;;;4402721;32;20230;-84
2022/08/01 10:45:26;;;;;;;4.22;1.62;;;;;;;;;;4402787;32;20250;-83
2022/08/01 10:48:02;;;;;;;2.22;1.92;;;;;;;;;;4400920;32;20283;-83
2022/08/01 10:50:34;;;;;;;2.10;1.85;;;;;;;;;;4403260;32;20224;-83
2022/08/01 10:53:09;;;;;;;7.22;2.17;;;;;;;;;;4414146;32;20276;-84
2022/08/01 10:55:52;;;;;;;5.07;1.85;;;;;;;;;;4414550;32;20206;-84
2022/08/01 10:58:28;;;;;;;4.05;1.83;;;;;;;;;;4414129;32;20229;-84
2022/08/01 11:01:28;;;;;;;2.10;1.65;;;;;;;;;;4415608;32;20193;-83
2022/08/01 11:04:00;;;;;;;2.72;1.87;;;;;;;;;;4430809;32;20209;-84
2022/08/01 11:06:34;;;;;;;1.85;1.45;;;;;;;;;;4427691;32;20245;-83
2022/08/01 11:09:23;;;;;;;6.70;1.92;;;;;;;;;;4419662;32;20216;-85
2022/08/01 11:12:16;;;;;;;2.28;1.55;;;;;;;;;;4434008;32;20302;-84
2022/08/01 11:15:04;;;;;;;4.45;1.80;;;;;;;;;;4401549;32;20707;-85
2022/08/01 11:17:34;;;;;;;3.45;1.80;;;;;;;;;;4402557;32;20272;-83
2022/08/01 11:20:10;;;;;;;2.65;1.67;;;;;;;;;;4403224;32;20271;-85
2022/08/01 11:22:57;;;;;;;4.53;2.20;;;;;;;;;;4402859;32;20530;-85
2022/08/01 11:25:23;;;;;;;1.77;1.60;;;;;;;;;;4402508;32;20202;-82
2022/08/01 11:28:09;;;;;;;3.28;1.95;;;;;;;;;;4401952;32;20543;-83
2022/08/01 11:30:35;;;;;;;6.60;2.08;;;;;;;;;;4402097;32;20291;-82
2022/08/01 11:33:00;;;;;;;5.18;1.90;;;;;;;;;;4401923;32;20685;-84
2022/08/01 11:35:27;;;;;;;4.20;1.77;;;;;;;;;;4410751;32;20331;-83
2022/08/01 11:37:56;;;;;;;2.85;1.67;;;;;;;;;;4416770;32;20229;-83
2022/08/01 11:40:27;;;;;;;7.95;1.65;;;;;;;;;;4416975;32;20563;-83
2022/08/01 11:43:19;;;;;;;2.03;1.83;;;;;;;;;;4417266;32;20707;-85
2022/08/01 11:45:54;;;;;;;6.68;1.67;;;;;;;;;;4416150;32;20235;-86
2022/08/01 11:48:24;;;;;;;2.97;1.73;;;;;;;;;;4416447;32;20237;-85
2022/08/01 11:50:51;;;;;;;8.43;1.65;;;;;;;;;;4416427;32;20308;-84
2022/08/01 11:53:19;;;;;;;2.25;1.58;;;;;;;;;;4416001;32;20243;-84
2022/08/01 11:55:53;;;;;;;3.42;1.80;;;;;;;;;;4417417;32;20653;-85
2022/08/01 11:58:26;;;;;;;4.05;1.70;;;;;;;;;;4416170;32;20251;-84
2022/08/01 12:00:55;;;;;;;2.00;1.27;;;;;;;;;;4417297;32;20649;-84
2022/08/01 12:03:29;;;;;;;6.32;1.58;;;;;;;;;;4417568;32;20565;-84
2022/08/01 12:05:56;;;;;;;8.68;1.70;;;;;;;;;;4416027;32;20237;-85
2022/08/01 12:08:33;;;;;;;1.58;1.42;;;;;;;;;;4417389;32;20276;-84
2022/08/01 12:10:59;;;;;;;1.73;1.37;;;;;;;;;;4417483;32;20251;-84
2022/08/01 12:13:25;;;;;;;3.12;1.48;;;;;;;;;;4416775;32;20225;-84
2022/08/01 12:15:50;;;;;;;1.77;1.50;;;;;;;;;;4417108;32;20831;-83
2022/08/01 12:18:16;;;;;;;4.82;1.70;;;;;;;;;;4417505;32;20299;-85
2022/08/01 12:20:44;;;;;;;1.95;1.75;;;;;;;;;;4418703;32;20335;-85
2022/08/01 12:23:13;;;;;;;2.80;1.65;;;;;;;;;;4417541;32;20223;-82
2022/08/01 12:25:39;;;;;;;4.18;1.33;;;;;;;;;;4417443;32;20257;-82
2022/08/01 12:40:46;;;;;;;2.55;1.83;;;;;;;;;;4490486;31;20384;-84
2022/08/01 12:43:17;;;;;;;1.87;1.62;;;;;;;;;;4475390;32;20254;-84
2022/08/01 12:45:50;;;;;;;2.37;1.50;;;;;;;;;;4474058;32;20715;-87
2022/08/01 12:48:17;;;;;;;2.55;1.73;;;;;;;;;;4470163;32;20342;-85
2022/08/01 12:50:46;;;;;;;4.78;2.00;;;;;;;;;;4459273;32;20322;-84
2022/08/01 12:53:15;;;;;;;3.62;1.67;;;;;;;;;;4459191;32;20252;-84
2022/08/01 12:55:54;;;;;;;2.97;1.75;;;;;;;;;;4457980;32;20209;-84
2022/08/01 12:58:21;;;;;;;3.50;1.65;;;;;;;;;;4457496;32;20264;-86
2022/08/01 13:00:48;;;;;;;1.95;1.40;;;;;;;;;;4457383;32;20336;-84
2022/08/01 13:03:16;;;;;;;3.10;2.00;;;;;;;;;;4471703;32;20286;-84
2022/08/01 13:05:58;;;;;;;2.05;1.58;;;;;;;;;;4473075;32;20275;-87
2022/08/01 13:08:32;;;;;;;2.75;2.20;;;;;;;;;;4473373;32;20314;-87
2022/08/01 13:11:09;;;;;;;4.60;2.47;;;;;;;;;;4469395;32;20231;-78
2022/08/01 13:13:47;;;;;;;4.07;2.10;;;;;;;;;;4472372;32;20348;-86
2022/08/01 13:16:12;;;;;;;8.40;1.95;;;;;;;;;;4458542;32;20228;-84
2022/08/01 13:18:39;;;;;;;2.35;2.00;;;;;;;;;;4465056;32;20272;-84
2022/08/01 13:21:18;;;;;;;8.57;1.95;;;;;;;;;;4473904;32;20231;-82
2022/08/01 13:24:12;;;;;;;3.12;2.78;;;;;;;;;;4474435;32;20225;-85
2022/08/01 13:27:03;;;;;;;4.37;2.70;;;;;;;;;;4474464;32;20228;-83
2022/08/01 13:29:38;;;;;;;1.85;1.70;;;;;;;;;;4463268;32;20328;-83
2022/08/01 13:32:14;;;;;;;3.22;2.00;;;;;;;;;;4449082;32;20227;-81
2022/08/01 13:34:39;;;;;;;2.62;1.77;;;;;;;;;;4443307;32;20204;-84
2022/08/01 13:37:05;;;;;;;3.50;1.98;;;;;;;;;;4443046;32;20350;-85
2022/08/01 13:39:40;;;;;;;2.78;1.98;;;;;;;;;;4442331;32;20328;-84
2022/08/01 13:42:07;;;;;;;2.30;1.95;;;;;;;;;;4434505;32;20304;-84
2022/08/01 13:44:33;;;;;;;3.40;2.50;;;;;;;;;;4447240;32;20731;-85
2022/08/01 13:46:59;;;;;;;6.55;2.33;;;;;;;;;;4446861;32;20332;-83
2022/08/01 13:49:24;;;;;;;3.17;2.40;;;;;;;;;;4448194;32;20300;-81
2022/08/01 13:51:50;;;;;;;8.52;2.65;;;;;;;;;;4447656;32;20224;-84
2022/08/01 13:54:16;;;;;;;7.57;3.42;;;;;;;;;;4448453;32;20295;-85
2022/08/01 13:56:41;;;;;;;5.60;2.17;;;;;;;;;;4448243;32;20687;-83
2022/08/01 13:59:08;;;;;;;2.58;2.22;;;;;;;;;;4447928;32;20668;-85
2022/08/01 14:01:34;;;;;;;2.35;2.08;;;;;;;;;;4448393;32;20228;-88
2022/08/01 14:04:00;;;;;;;2.42;2.10;;;;;;;;;;4447224;32;20286;-88
2022/08/01 14:06:25;;;;;;;3.40;2.05;;;;;;;;;;4436313;32;20316;-88
2022/08/01 14:08:51;;;;;;;4.80;2.40;;;;;;;;;;4432936;32;20379;-88
2022/08/01 14:11:17;;;;;;;4.68;2.35;;;;;;;;;;4432074;32;20811;-89
2022/08/01 14:13:43;;;;;;;3.20;1.87;;;;;;;;;;4431163;32;20237;-88
2022/08/01 14:16:08;;;;;;;2.30;1.92;;;;;;;;;;4437787;32;20608;-89
2022/08/01 14:18:34;;;;;;;3.45;2.70;;;;;;;;;;4449074;32;20235;-88
2022/08/01 14:21:02;;;;;;;3.62;2.60;;;;;;;;;;4445920;32;20259;-88
2022/08/01 14:23:28;;;;;;;4.25;2.60;;;;;;;;;;4446417;32;20228;-88
2022/08/01 14:25:53;;;;;;;6.35;2.30;;;;;;;;;;4446683;32;20670;-87
2022/08/01 14:28:19;;;;;;;2.45;2.10;;;;;;;;;;4446789;32;20906;-87
2022/08/01 14:30:46;;;;;;;6.93;2.45;;;;;;;;;;4445002;32;20318;-88
2022/08/01 14:33:12;;;;;;;2.62;2.20;;;;;;;;;;4447543;32;20264;-87
2022/08/01 14:35:38;;;;;;;3.30;2.55;;;;;;;;;;4447961;32;20282;-88
2022/08/01 14:38:04;;;;;;;3.97;2.67;;;;;;;;;;4448126;32;20216;-89
2022/08/01 14:40:29;;;;;;;2.60;1.90;;;;;;;;;;4446306;32;20355;-88
2022/08/01 14:42:55;;;;;;;3.37;2.25;;;;;;;;;;4445817;32;20324;-88
2022/08/01 14:45:20;;;;;;;3.40;2.05;;;;;;;;;;4447629;32;20221;-88
2022/08/01 14:47:46;;;;;;;5.60;2.60;;;;;;;;;;4446121;32;20726;-88
2022/08/01 14:50:14;;;;;;;7.40;2.28;;;;;;;;;;4446508;32;20304;-88
2022/08/01 14:52:40;;;;;;;5.03;1.98;;;;;;;;;;4447323;32;20196;-88
2022/08/01 14:55:09;;;;;;;2.28;1.90;;;;;;;;;;4447919;32;20209;-89
2022/08/01 14:57:37;;;;;;;1.77;1.50;;;;;;;;;;4447650;32;20208;-89
2022/08/01 15:00:06;;;;;;;5.50;1.60;;;;;;;;;;4437766;32;20627;-88
2022/08/01 15:02:31;;;;;;;8.98;2.47;;;;;;;;;;4430820;32;20235;-85
2022/08/01 15:04:57;;;;;;;4.37;2.92;;;;;;;;;;4431235;32;20239;-85
2022/08/01 15:07:22;;;;;;;3.95;2.47;;;;;;;;;;4446223;32;20286;-84
2022/08/01 15:09:48;;;;;;;5.32;2.50;;;;;;;;;;4448080;32;20286;-90